Tombarra — MPRD6 — position and weather

sailwx.info

Track history (hours):
 
Tides and Currents Weather Stations Pressure Air Temp Water Temp Dewpoint Dewpoint Depression Visibility Wind Speed Wind Dir Waves Ship Positions

Tombarra

Last reported at 2014-Sep-15 00:24 UTC. Time now 2014-Oct-01 18:24 UTC.
Position S 32°12' E 029°10'.
Warning: this ship's position is 16 days out of date.

Length 199 m; draft 8.5 m.

Type: Ship. MMSI: 232971000.

Date/timePositionNaut miles runAvg speedWind from/ knotsBaromVisibWave heightAir tempDewpointWater temp
2014-Sep-15 00:24S 32°12' E 029°10'1718.1
2014-Sep-14 23:28S 31°59' E 029°24'4219.1
2014-Sep-14 21:16S 31°29' E 029°57'1819.3
2014-Sep-14 20:20S 31°15' E 030°10'1518.8
2014-Sep-14 19:32S 31°03' E 030°21'3617.8
2014-Sep-14 17:30S 30°32' E 030°43'1616.0
2014-Sep-14 16:30S 30°18' E 030°53'1616.9
2014-Sep-14 15:34S 30°05' E 031°02'1414.4
2014-Sep-14 14:33S 29°51' E 031°07'4 2.0
2014-Sep-14 12:23S 29°52' E 031°02'0 0.0
2014-Sep-14 11:29S 29°52' E 031°02'0 0.0
2014-Sep-14 10:05S 29°52' E 031°02'0 0.0
2014-Sep-14 09:30S 29°52' E 031°02'0 0.0
2014-Sep-14 07:29S 29°52' E 031°02'0 0.0
2014-Sep-14 06:29S 29°52' E 031°02'0 0.0
2014-Sep-14 05:29S 29°52' E 031°02'0 0.0
2014-Sep-14 04:11S 29°52' E 031°02'0 0.0
2014-Sep-14 03:17S 29°52' E 031°02'0 0.0
2014-Sep-14 02:29S 29°52' E 031°02'0 0.0
2014-Sep-14 01:23S 29°52' E 031°02'0 0.0
2014-Sep-13 21:29S 29°52' E 031°02'0 0.0
2014-Sep-13 20:29S 29°52' E 031°02'0 0.0
2014-Sep-13 19:29S 29°52' E 031°02'1 1.0
2014-Sep-13 18:33S 29°53' E 031°03'4 4.4
2014-Sep-13 17:33S 29°50' E 031°07'0 0.1
2014-Sep-13 16:33S 29°50' E 031°07'2 2.2
2014-Sep-13 15:33S 29°50' E 031°09'1 0.8
2014-Sep-13 14:33S 29°49' E 031°09'1 0.9
2014-Sep-13 13:33S 29°50' E 031°09'1 1.0
2014-Sep-13 12:33S 29°51' E 031°10'2 1.7
2014-Sep-13 11:33S 29°50' E 031°10'1 0.6
2014-Sep-13 10:33S 29°50' E 031°09'3 2.7
2014-Sep-13 09:33S 29°52' E 031°09'2 2.0
2014-Sep-13 08:32S 29°53' E 031°12'1 1.3
2014-Sep-13 07:33S 29°53' E 031°13'3 3.3
2014-Sep-13 06:33S 29°55' E 031°15'1 0.8
2014-Sep-13 05:33S 29°55' E 031°14'1 1.3
2014-Sep-13 04:33S 29°55' E 031°13'1 0.5
2014-Sep-13 03:33S 29°56' E 031°13'1 0.9
2014-Sep-13 02:33S 29°56' E 031°14'1 0.9
2014-Sep-13 01:33S 29°56' E 031°13'0 0.3
2014-Sep-13 00:33S 29°55' E 031°13'3 3.2
2014-Sep-12 23:32S 29°52' E 031°12'1 0.6
2014-Sep-12 22:33S 29°53' E 031°13'1 0.8
2014-Sep-12 21:33S 29°53' E 031°13'1 1.2
2014-Sep-12 20:33S 29°52' E 031°14'4 4.0
2014-Sep-12 19:33S 29°48' E 031°13'1 0.9
2014-Sep-12 18:33S 29°49' E 031°14'6 5.9
2014-Sep-12 17:32S 29°45' E 031°20'8 8.3
2014-Sep-12 16:33S 29°42' E 031°28'5 5.5
2014-Sep-12 15:33S 29°38' E 031°33'9 8.9
2014-Sep-12 14:33S 29°33' E 031°41'9 9.3
2014-Sep-12 13:33S 29°26' E 031°49'  
Track history (hours):
 
Tides and Currents Weather Stations Pressure Air Temp Water Temp Dewpoint Dewpoint Depression Visibility Wind Speed Wind Dir Waves Ship Positions

Tombarra

Last reported at 2014-Sep-15 00:24 UTC. Time now 2014-Oct-01 18:24 UTC.
Position S 32°12' E 029°10'.
Warning: this ship's position is 16 days out of date.

Length 199 m; draft 8.5 m.

Type: Ship. MMSI: 232971000.

Date/timePositionNaut miles runAvg speedWind from/ knotsBaromVisibWave heightAir tempDewpointWater temp
2014-Sep-15 00:24S 32°12' E 029°10'1718.1
2014-Sep-14 23:28S 31°59' E 029°24'4219.1
2014-Sep-14 21:16S 31°29' E 029°57'1819.3
2014-Sep-14 20:20S 31°15' E 030°10'1518.8
2014-Sep-14 19:32S 31°03' E 030°21'3617.8
2014-Sep-14 17:30S 30°32' E 030°43'1616.0
2014-Sep-14 16:30S 30°18' E 030°53'1616.9
2014-Sep-14 15:34S 30°05' E 031°02'1414.4
2014-Sep-14 14:33S 29°51' E 031°07'4 2.0
2014-Sep-14 12:23S 29°52' E 031°02'0 0.0
2014-Sep-14 11:29S 29°52' E 031°02'0 0.0
2014-Sep-14 10:05S 29°52' E 031°02'0 0.0
2014-Sep-14 09:30S 29°52' E 031°02'0 0.0
2014-Sep-14 07:29S 29°52' E 031°02'0 0.0
2014-Sep-14 06:29S 29°52' E 031°02'0 0.0
2014-Sep-14 05:29S 29°52' E 031°02'0 0.0
2014-Sep-14 04:11S 29°52' E 031°02'0 0.0
2014-Sep-14 03:17S 29°52' E 031°02'0 0.0
2014-Sep-14 02:29S 29°52' E 031°02'0 0.0
2014-Sep-14 01:23S 29°52' E 031°02'0 0.0
2014-Sep-13 21:29S 29°52' E 031°02'0 0.0
2014-Sep-13 20:29S 29°52' E 031°02'0 0.0
2014-Sep-13 19:29S 29°52' E 031°02'1 1.0
2014-Sep-13 18:33S 29°53' E 031°03'4 4.4
2014-Sep-13 17:33S 29°50' E 031°07'0 0.1
2014-Sep-13 16:33S 29°50' E 031°07'2 2.2
2014-Sep-13 15:33S 29°50' E 031°09'1 0.8
2014-Sep-13 14:33S 29°49' E 031°09'1 0.9
2014-Sep-13 13:33S 29°50' E 031°09'1 1.0
2014-Sep-13 12:33S 29°51' E 031°10'2 1.7
2014-Sep-13 11:33S 29°50' E 031°10'1 0.6
2014-Sep-13 10:33S 29°50' E 031°09'3 2.7
2014-Sep-13 09:33S 29°52' E 031°09'2 2.0
2014-Sep-13 08:32S 29°53' E 031°12'1 1.3
2014-Sep-13 07:33S 29°53' E 031°13'3 3.3
2014-Sep-13 06:33S 29°55' E 031°15'1 0.8
2014-Sep-13 05:33S 29°55' E 031°14'1 1.3
2014-Sep-13 04:33S 29°55' E 031°13'1 0.5
2014-Sep-13 03:33S 29°56' E 031°13'1 0.9
2014-Sep-13 02:33S 29°56' E 031°14'1 0.9
2014-Sep-13 01:33S 29°56' E 031°13'0 0.3
2014-Sep-13 00:33S 29°55' E 031°13'3 3.2
2014-Sep-12 23:32S 29°52' E 031°12'1 0.6
2014-Sep-12 22:33S 29°53' E 031°13'1 0.8
2014-Sep-12 21:33S 29°53' E 031°13'1 1.2
2014-Sep-12 20:33S 29°52' E 031°14'4 4.0
2014-Sep-12 19:33S 29°48' E 031°13'1 0.9
2014-Sep-12 18:33S 29°49' E 031°14'6 5.9
2014-Sep-12 17:32S 29°45' E 031°20'8 8.3
2014-Sep-12 16:33S 29°42' E 031°28'5 5.5
2014-Sep-12 15:33S 29°38' E 031°33'9 8.9
2014-Sep-12 14:33S 29°33' E 031°41'9 9.3
2014-Sep-12 13:33S 29°26' E 031°49'  

Dump ship's entire track history